Time;durP1;ratioP1;P1;durP2;ratioP2;P2;SDS_P1;SDS_P2;PMS_P1;PMS_P2;Temp;Humidity;BMP_temperature;BMP_pressure;BME280_temperature;BME280_humidity;BME280_pressure;Samples;Min_cycle;Max_cycle;Signal;HPM_P1;HPM_P2
2022/01/11 00:01:43;;;;;;;;;;;3.10;99.90;;;;;;5262087;28;20174;-84
2022/01/11 00:04:17;;;;;;;34.83;16.35;;;;;;;;;;5250310;28;19923;-84
2022/01/11 00:06:51;;;;;;;38.92;17.85;;;;;;;;;;5259098;28;20036;-85
2022/01/11 00:12:06;;;;;;;34.47;16.35;;;;;;;;;;5259834;27;20250;-84
2022/01/11 00:14:39;;;;;;;36.00;17.15;;;;;;;;;;5263408;28;20414;-84
2022/01/11 00:17:12;;;;;;;33.63;17.17;;;;;;;;;;5243844;28;20410;-85
2022/01/11 00:19:48;;;;;;;29.10;13.07;;;;;;;;;;5226734;28;20035;-84
2022/01/11 00:22:27;;;;;;;38.97;17.63;;;;;;;;;;5261401;28;26656;-84
2022/01/11 00:25:01;;;;;;;34.92;16.63;;;;;;;;;;5235396;28;20422;-85
2022/01/11 00:27:34;;;;;;;38.38;17.55;;;;;;;;;;5231644;28;20043;-85
2022/01/11 00:30:08;;;;;;;40.67;18.93;;;;;;;;;;5257493;27;20446;-84
2022/01/11 00:32:47;;;;;;;42.15;18.25;;;;;;;;;;5236594;28;20040;-84
2022/01/11 00:35:27;;;;;;;36.67;17.95;;;;;;;;;;5243275;28;20056;-85
2022/01/11 00:38:01;;;;;;;37.22;17.48;;;;;;;;;;5252408;28;20044;-84
2022/01/11 00:40:34;;;;;;;36.72;17.02;;;;;;;;;;5246670;27;20040;-83
2022/01/11 00:43:07;;;;;;;41.75;18.38;;;;;;;;;;5271014;28;20044;-84
2022/01/11 00:45:40;;;;;;;41.47;18.60;;;;;;;;;;5248839;28;20410;-85
2022/01/11 00:48:13;;;;;;;39.72;19.00;;;;;;;;;;5251058;28;20040;-85
2022/01/11 00:50:47;;;;;;;42.10;18.83;;;;;;;;;;5216648;28;20485;-85
2022/01/11 00:53:20;;;;;;;;;;;3.00;99.90;;;;;;5232124;28;20055;-84
2022/01/11 00:55:53;;;;;;;49.05;17.45;;;;;;;;;;5235295;28;19927;-85
2022/01/11 00:58:25;;;;;;;38.33;17.70;;;;;;;;;;5243830;27;20561;-85
2022/01/11 01:00:59;;;;;;;38.07;17.03;;;;;;;;;;4527421;28;10000531;-86
2022/01/11 01:03:32;;;;;;;43.53;19.23;;;;;;;;;;5224260;28;20911;-85
2022/01/11 01:06:05;;;;;;;38.83;17.95;;;;;;;;;;5216602;28;20036;-85
2022/01/11 01:08:39;;;;;;;42.60;18.95;;;;;;;;;;5213444;28;20050;-85
2022/01/11 01:11:13;;;;;;;39.05;17.63;;;;;;;;;;5251038;27;20040;-85
2022/01/11 01:13:51;;;;;;;50.17;19.58;;;;;;;;;;5246505;28;20044;-85
2022/01/11 01:16:24;;;;;;;46.60;19.63;;;;;;;;;;5234055;28;20039;-86
2022/01/11 01:19:07;;;;;;;40.55;19.35;;;;;;;;;;5249910;28;20048;-86
2022/01/11 01:21:40;;;;;;;40.10;19.23;;;;;;;;;;5251809;27;20059;-84
2022/01/11 01:24:12;;;;;;;41.47;19.27;;;;;;;;;;5235073;28;20048;-86
2022/01/11 01:26:45;;;;;;;44.78;20.30;;;;;;;;;;5255980;27;20138;-85
2022/01/11 01:29:18;;;;;;;41.67;19.47;;;;;;;;;;5232416;28;20046;-85
2022/01/11 01:31:51;;;;;;;42.57;19.27;;;;;;;;;;5215172;28;20051;-84
2022/01/11 01:34:24;;;;;;;46.58;19.52;;;;;;;;;;5251483;28;20048;-85
2022/01/11 01:36:58;;;;;;;45.92;20.55;;;;;;;;;;5223629;28;20066;-85
2022/01/11 01:39:31;;;;;;;45.40;19.47;;;;;;;;;;5246570;28;20140;-84
2022/01/11 01:42:07;;;;;;;40.90;18.10;;;2.80;99.90;;;;;;5231928;28;20059;-86
2022/01/11 01:44:42;;;;;;;46.50;20.73;;;;;;;;;;5258235;28;20043;-85
2022/01/11 01:47:15;;;;;;;42.38;19.25;;;;;;;;;;5224543;28;20056;-85
2022/01/11 01:49:48;;;;;;;38.83;18.20;;;;;;;;;;5239587;28;20585;-85
2022/01/11 01:52:21;;;;;;;44.93;18.07;;;;;;;;;;5219932;28;20328;-84
2022/01/11 01:54:54;;;;;;;47.85;20.33;;;;;;;;;;5251852;28;20047;-85
2022/01/11 01:57:28;;;;;;;46.50;20.42;;;;;;;;;;5223088;28;20055;-86
2022/01/11 02:00:07;;;;;;;46.03;20.27;;;;;;;;;;5236380;28;20552;-85
2022/01/11 02:02:44;;;;;;;41.45;18.60;;;;;;;;;;5233018;28;20048;-85
2022/01/11 02:05:17;;;;;;;41.90;19.58;;;;;;;;;;5241681;28;20035;-85
2022/01/11 02:07:50;;;;;;;45.93;21.00;;;;;;;;;;5259426;28;20055;-84
2022/01/11 02:10:23;;;;;;;52.83;20.93;;;;;;;;;;5252932;28;20050;-85
2022/01/11 02:12:56;;;;;;;48.10;21.55;;;;;;;;;;5237924;28;20039;-84
2022/01/11 02:15:29;;;;;;;43.95;20.67;;;;;;;;;;5250642;28;20039;-85
2022/01/11 02:18:18;;;;;;;48.88;22.05;;;2.90;99.90;;;;;;5237626;28;20062;-85
2022/01/11 02:20:58;;;;;;;48.83;20.63;;;2.90;99.90;;;;;;5234195;28;20044;-85
2022/01/11 02:23:38;;;;;;;47.45;20.83;;;;;;;;;;5244555;28;20055;-85
2022/01/11 02:26:12;;;;;;;43.00;20.88;;;;;;;;;;5200985;28;20051;-85
2022/01/11 02:28:48;;;;;;;44.58;19.67;;;;;;;;;;5227459;28;20773;-85
2022/01/11 02:31:21;;;;;;;57.45;22.35;;;;;;;;;;5234307;28;20043;-85
2022/01/11 02:33:59;;;;;;;47.97;20.98;;;;;;;;;;5245469;28;20334;-84
2022/01/11 02:36:35;;;;;;;46.30;21.52;;;2.90;99.90;;;;;;5237237;28;20607;-85
2022/01/11 02:39:35;;;;;;;51.65;22.50;;;;;;;;;;5239709;28;20051;-85
2022/01/11 02:42:14;;;;;;;49.03;20.88;;;;;;;;;;5237109;28;20101;-85
2022/01/11 02:44:49;;;;;;;54.63;23.08;;;;;;;;;;5226471;28;20519;-86
2022/01/11 02:47:25;;;;;;;53.33;23.20;;;;;;;;;;5206444;28;20067;-85
2022/01/11 02:50:00;;;;;;;46.58;21.77;;;;;;;;;;5251581;28;20040;-85
2022/01/11 02:52:39;;;;;;;53.95;23.08;;;;;;;;;;5241841;28;20058;-84
2022/01/11 02:55:14;;;;;;;54.63;20.58;;;2.90;99.90;;;;;;5245449;28;20048;-84
2022/01/11 02:57:49;;;;;;;56.28;21.60;;;;;;;;;;5240048;28;20433;-85
2022/01/11 03:00:26;;;;;;;49.50;21.40;;;;;;;;;;5243435;28;20129;-85
2022/01/11 03:03:20;;;;;;;50.50;21.50;;;2.90;99.90;;;;;;5229877;28;20047;-86
2022/01/11 03:05:56;;;;;;;54.97;24.63;;;2.90;99.90;;;;;;5221231;28;20514;-84
2022/01/11 03:08:36;;;;;;;54.92;23.80;;;2.90;99.90;;;;;;5237288;28;20058;-85
2022/01/11 03:11:11;;;;;;;51.90;21.83;;;2.90;99.90;;;;;;5234097;28;20040;-85
2022/01/11 03:13:44;;;;;;;51.40;21.75;;;;;;;;;;5236676;28;20039;-85
2022/01/11 03:16:18;;;;;;;55.88;22.77;;;2.90;99.90;;;;;;5249640;28;20062;-85
2022/01/11 03:18:50;;;;;;;;;;;2.80;99.90;;;;;;5245924;28;20938;-85
2022/01/11 03:21:23;;;;;;;51.40;21.88;;;;;;;;;;5234034;28;19930;-86
2022/01/11 03:23:57;;;;;;;53.65;21.48;;;;;;;;;;5243911;28;20177;-85
2022/01/11 03:26:31;;;;;;;51.00;21.38;;;;;;;;;;5223985;28;20052;-86
2022/01/11 03:29:04;;;;;;;47.77;21.30;;;;;;;;;;5233105;28;20052;-86
2022/01/11 03:31:36;;;;;;;55.33;22.10;;;;;;;;;;5239779;28;20071;-85
2022/01/11 03:34:10;;;;;;;58.70;20.37;;;;;;;;;;5240612;28;20048;-85
2022/01/11 03:36:43;;;;;;;54.40;25.75;;;;;;;;;;5238542;28;20309;-85
2022/01/11 03:39:16;;;;;;;50.03;22.80;;;;;;;;;;5236745;28;20051;-84
2022/01/11 03:41:49;;;;;;;52.17;22.07;;;;;;;;;;5234444;28;20059;-86
2022/01/11 03:44:22;;;;;;;51.75;21.58;;;;;;;;;;5229236;28;20055;-86
2022/01/11 03:46:55;;;;;;;52.13;22.47;;;;;;;;;;5226825;28;20054;-85
2022/01/11 03:49:28;;;;;;;53.75;22.25;;;;;;;;;;5218178;28;20036;-85
2022/01/11 03:52:01;;;;;;;50.60;22.05;;;;;;;;;;5222835;28;20059;-85
2022/01/11 03:57:43;;;;;;;51.53;22.20;;;;;;;;;;5233406;28;20047;-85
2022/01/11 04:00:18;;;;;;;;;;;2.90;99.90;;;;;;5245123;28;20040;-85
2022/01/11 04:02:53;;;;;;;49.08;21.20;;;;;;;;;;5218203;28;19907;-85
2022/01/11 04:05:26;;;;;;;53.95;22.77;;;;;;;;;;5252465;23;20048;-31
2022/01/11 04:07:59;;;;;;;53.92;22.30;;;;;;;;;;5195969;28;20531;-31
2022/01/11 04:10:32;;;;;;;59.03;23.75;;;;;;;;;;5221401;28;20040;-31
2022/01/11 04:13:05;;;;;;;55.23;23.00;;;;;;;;;;5223147;28;20036;-31
2022/01/11 04:15:38;;;;;;;57.90;23.40;;;;;;;;;;5239475;28;20048;-32
2022/01/11 04:18:11;;;;;;;51.38;23.92;;;;;;;;;;5240727;23;20650;-86
2022/01/11 04:20:44;;;;;;;50.05;20.50;;;;;;;;;;5176863;28;20055;-86
2022/01/11 04:23:17;;;;;;;57.00;22.40;;;2.80;99.90;;;;;;5188966;28;20048;-86
2022/01/11 04:25:52;;;;;;;52.55;22.38;;;;;;;;;;5222815;28;20044;-86
2022/01/11 04:28:26;;;;;;;54.93;22.83;;;;;;;;;;5188474;28;20060;-87
2022/01/11 04:31:00;;;;;;;49.17;22.55;;;;;;;;;;5203153;28;20085;-87
2022/01/11 04:33:34;;;;;;;53.65;22.55;;;;;;;;;;5223684;28;20044;-86
2022/01/11 04:36:07;;;;;;;50.55;21.55;;;;;;;;;;5183193;28;20059;-87
2022/01/11 04:38:40;;;;;;;47.40;20.77;;;2.80;99.90;;;;;;5207261;28;21057;-86
2022/01/11 04:41:13;;;;;;;52.92;23.50;;;;;;;;;;5205929;28;20677;-86
2022/01/11 04:43:50;;;;;;;56.42;22.58;;;;;;;;;;5210774;28;20049;-86
2022/01/11 04:46:23;;;;;;;52.00;23.10;;;;;;;;;;5204404;28;20049;-86
2022/01/11 04:49:00;;;;;;;49.05;22.08;;;;;;;;;;5212070;28;20044;-86
2022/01/11 04:51:35;;;;;;;52.00;23.30;;;;;;;;;;5213138;28;20044;-86
2022/01/11 04:54:09;;;;;;;57.08;21.58;;;;;;;;;;5200120;28;20095;-86
2022/01/11 04:56:42;;;;;;;51.17;21.87;;;;;;;;;;5195036;28;20431;-87
2022/01/11 04:59:16;;;;;;;52.22;21.70;;;;;;;;;;5187716;28;20101;-86
2022/01/11 05:01:49;;;;;;;50.90;23.40;;;;;;;;;;5189875;28;20045;-87
2022/01/11 05:04:22;;;;;;;52.78;20.33;;;;;;;;;;5185891;28;20052;-88
2022/01/11 05:06:58;;;;;;;55.05;22.73;;;;;;;;;;5188470;28;20131;-87
2022/01/11 05:09:31;;;;;;;;;;;2.70;99.90;;;;;;5184317;28;20052;-87
2022/01/11 05:12:04;;;;;;;50.10;21.27;;;;;;;;;;5182959;28;20040;-88
2022/01/11 05:14:36;;;;;;;;;;;2.80;99.90;;;;;;5204966;28;20052;-87
2022/01/11 05:17:10;;;;;;;50.45;20.02;;;;;;;;;;5170873;28;19920;-88
2022/01/11 05:19:43;;;;;;;51.25;20.95;;;;;;;;;;5227039;28;20052;-88
2022/01/11 05:22:16;;;;;;;49.33;22.02;;;;;;;;;;5187601;28;20049;-88
2022/01/11 05:24:49;;;;;;;53.55;22.63;;;;;;;;;;5201065;28;20068;-87
2022/01/11 05:27:30;;;;;;;55.53;23.43;;;;;;;;;;5213578;28;20121;-88
2022/01/11 05:30:05;;;;;;;53.47;22.30;;;2.70;99.90;;;;;;5176900;23;20308;-31
2022/01/11 05:32:38;;;;;;;55.22;22.83;;;;;;;;;;5155120;28;20113;-31
2022/01/11 05:35:12;;;;;;;54.70;23.37;;;2.70;99.90;;;;;;5173115;28;20048;-32
2022/01/11 05:37:45;;;;;;;55.50;23.30;;;;;;;;;;5178231;28;26388;-32
2022/01/11 05:40:19;;;;;;;53.75;22.73;;;2.70;99.90;;;;;;5172153;28;20045;-32
2022/01/11 05:42:53;;;;;;;53.47;22.30;;;;;;;;;;5155263;28;20042;-32
2022/01/11 05:45:27;;;;;;;50.75;21.85;;;;;;;;;;5157683;28;20051;-32
2022/01/11 05:48:03;;;;;;;52.00;22.90;;;;;;;;;;5163213;28;20103;-31
2022/01/11 05:50:38;;;;;;;50.40;22.50;;;;;;;;;;5163103;28;20553;-31
2022/01/11 05:53:13;;;;;;;48.03;21.42;;;;;;;;;;5178708;28;20049;-32
2022/01/11 05:55:47;;;;;;;50.88;22.00;;;;;;;;;;5156435;28;20405;-31
2022/01/11 05:58:20;;;;;;;49.17;22.03;;;;;;;;;;5170739;28;20056;-32
2022/01/11 06:00:53;;;;;;;50.55;20.58;;;;;;;;;;5143121;28;20049;-31
2022/01/11 06:03:26;;;;;;;57.87;23.23;;;;;;;;;;5149781;28;20046;-31
2022/01/11 06:05:59;;;;;;;63.73;23.20;;;;;;;;;;5150476;28;20449;-32
2022/01/11 06:08:32;;;;;;;47.20;22.20;;;;;;;;;;5170573;28;20042;-32
2022/01/11 06:11:07;;;;;;;53.95;22.58;;;;;;;;;;5168726;28;20054;-32
2022/01/11 06:13:42;;;;;;;58.22;23.52;;;;;;;;;;5168985;28;20064;-32
2022/01/11 06:16:15;;;;;;;45.50;21.33;;;;;;;;;;5143156;28;20061;-32
2022/01/11 06:18:49;;;;;;;49.10;21.13;;;;;;;;;;5161170;28;20054;-31
2022/01/11 06:21:29;;;;;;;52.88;23.90;;;;;;;;;;5160372;28;20404;-32
2022/01/11 06:24:03;;;;;;;57.53;22.77;;;;;;;;;;5171164;28;20046;-31
2022/01/11 06:26:35;;;;;;;55.93;23.43;;;;;;;;;;5163776;28;20485;-32
2022/01/11 06:29:08;;;;;;;49.53;22.60;;;;;;;;;;5160585;28;20296;-32
2022/01/11 06:31:41;;;;;;;51.40;23.13;;;;;;;;;;5177235;28;20045;-32
2022/01/11 06:34:14;;;;;;;54.67;23.00;;;;;;;;;;5168326;28;20520;-32
2022/01/11 06:36:47;;;;;;;51.95;22.73;;;;;;;;;;5160118;28;20037;-31
2022/01/11 06:39:20;;;;;;;50.85;20.90;;;;;;;;;;5168049;28;20544;-31
2022/01/11 06:41:53;;;;;;;50.15;20.80;;;;;;;;;;5154655;28;20069;-31
2022/01/11 06:44:27;;;;;;;53.60;23.27;;;;;;;;;;5146490;28;20056;-32
2022/01/11 06:47:00;;;;;;;47.40;22.03;;;;;;;;;;5140924;28;20052;-31
2022/01/11 06:49:32;;;;;;;56.13;24.60;;;;;;;;;;5151292;28;20045;-31
2022/01/11 06:52:05;;;;;;;48.42;21.65;;;;;;;;;;5170111;28;20049;-32
2022/01/11 06:54:42;;;;;;;49.40;22.23;;;;;;;;;;5169762;28;20434;-32
2022/01/11 06:57:15;;;;;;;48.53;20.97;;;;;;;;;;5170378;28;20049;-32
2022/01/11 06:59:49;;;;;;;54.70;22.15;;;;;;;;;;5156616;28;20050;-33
2022/01/11 07:02:26;;;;;;;41.72;20.77;;;;;;;;;;5155967;28;20045;-33
2022/01/11 07:05:37;;;;;;;52.45;22.08;;;;;;;;;;5172329;28;20045;-32
2022/01/11 07:08:11;;;;;;;47.10;21.87;;;2.70;99.90;;;;;;5158109;28;20512;-32
2022/01/11 07:10:44;;;;;;;49.08;21.65;;;;;;;;;;5173203;28;20053;-33
2022/01/11 07:13:17;;;;;;;52.55;22.52;;;;;;;;;;5146693;28;20449;-32
2022/01/11 07:15:51;;;;;;;42.38;21.45;;;;;;;;;;5155571;28;20211;-32
2022/01/11 07:18:24;;;;;;;;;;;2.70;99.90;;;;;;5172165;28;20387;-33
2022/01/11 07:21:04;;;;;;;47.88;21.88;;;;;;;;;;5160377;28;19932;-32
2022/01/11 07:23:38;;;;;;;49.28;21.63;;;;;;;;;;5164926;28;20053;-32
2022/01/11 07:26:11;;;;;;;50.23;21.60;;;;;;;;;;5172563;28;20077;-32
2022/01/11 07:28:46;;;;;;;50.47;22.40;;;;;;;;;;5157572;28;20508;-32
2022/01/11 07:31:22;;;;;;;48.92;22.05;;;;;;;;;;5160995;28;20049;-32
2022/01/11 07:33:59;;;;;;;50.85;22.52;;;;;;;;;;5157904;28;20038;-33
2022/01/11 07:36:31;;;;;;;;;;;2.70;99.90;;;;;;5178868;28;20417;-33
2022/01/11 07:39:08;;;;;;;49.47;22.65;;;;;;;;;;5177084;28;19929;-32
2022/01/11 07:41:41;;;;;;;50.38;22.75;;;;;;;;;;5156133;28;20053;-32
2022/01/11 07:44:18;;;;;;;48.25;21.08;;;;;;;;;;5177832;28;20049;-32
2022/01/11 07:46:52;;;;;;;;;;;2.70;99.90;;;;;;5178732;28;20041;-33
2022/01/11 07:49:34;;;;;;;50.63;22.58;;;;;;;;;;5178653;28;19936;-33
2022/01/11 07:52:07;;;;;;;59.35;26.13;;;;;;;;;;5173948;28;20046;-33
2022/01/11 07:54:40;;;;;;;46.53;22.10;;;;;;;;;;5179722;28;20513;-32
2022/01/11 07:57:16;;;;;;;55.00;23.20;;;;;;;;;;5156963;28;20053;-32
2022/01/11 07:59:49;;;;;;;58.70;24.70;;;;;;;;;;5165488;28;20051;-32
2022/01/11 08:02:36;;;;;;;45.17;21.23;;;;;;;;;;5174920;28;20649;-33
2022/01/11 08:05:11;;;;;;;50.22;22.45;;;;;;;;;;5162676;28;20054;-32
2022/01/11 08:07:46;;;;;;;54.13;24.02;;;;;;;;;;5174562;28;20061;-32
2022/01/11 08:10:24;;;;;;;47.05;22.15;;;;;;;;;;5161777;28;20330;-33
2022/01/11 08:12:57;;;;;;;;;;;2.90;99.90;;;;;;5162665;28;20053;-33
2022/01/11 08:15:30;;;;;;;48.20;21.60;;;;;;;;;;5172562;28;19936;-33
2022/01/11 08:18:04;;;;;;;45.85;20.95;;;;;;;;;;5165885;28;20060;-33
2022/01/11 08:20:37;;;;;;;49.42;21.50;;;;;;;;;;5164154;28;20057;-32
2022/01/11 08:23:12;;;;;;;49.65;21.55;;;;;;;;;;5161475;28;20049;-34
2022/01/11 08:25:45;;;;;;;57.42;25.45;;;;;;;;;;5161611;28;20492;-32
2022/01/11 08:28:18;;;;;;;47.83;20.43;;;;;;;;;;5154050;28;20525;-33
2022/01/11 08:30:59;;;;;;;42.35;18.55;;;;;;;;;;5154740;28;20056;-33
2022/01/11 08:33:35;;;;;;;42.42;19.02;;;;;;;;;;5163062;28;20528;-33
2022/01/11 08:36:08;;;;;;;38.92;19.88;;;;;;;;;;5167786;28;20050;-32
2022/01/11 08:38:43;;;;;;;41.47;19.40;;;;;;;;;;5173792;28;20038;-32
2022/01/11 08:41:19;;;;;;;;;;;3.10;99.90;;;;;;5177276;28;20050;-32
2022/01/11 08:43:52;;;;;;;38.75;17.80;;;;;;;;;;5195034;28;19928;-32
2022/01/11 08:46:26;;;;;;;38.05;18.83;;;;;;;;;;5163307;28;20038;-33
2022/01/11 08:49:14;;;;;;;43.05;19.20;;;3.00;99.90;;;;;;5166165;28;20046;-32
2022/01/11 08:51:47;;;;;;;45.38;19.45;;;;;;;;;;5162072;28;20041;-32
2022/01/11 08:54:24;;;;;;;38.63;17.80;;;;;;;;;;5180849;28;20052;-32
2022/01/11 08:57:00;;;;;;;43.92;20.63;;;3.10;99.90;;;;;;5162691;28;20046;-32
2022/01/11 08:59:33;;;;;;;;;;;3.00;99.90;;;;;;5180743;28;20053;-32
2022/01/11 09:02:09;;;;;;;51.03;20.58;;;;;;;;;;5157501;28;19921;-33
2022/01/11 09:04:45;;;;;;;53.83;20.60;;;;;;;;;;5164426;28;20131;-33
2022/01/11 09:07:22;;;;;;;37.47;18.30;;;;;;;;;;5181861;28;20037;-32
2022/01/11 09:09:59;;;;;;;44.30;18.80;;;;;;;;;;5160517;28;20112;-32
2022/01/11 09:12:31;;;;;;;43.05;20.23;;;;;;;;;;5163309;28;20045;-32
2022/01/11 09:15:06;;;;;;;41.40;19.52;;;3.10;99.90;;;;;;5184531;28;20040;-33
2022/01/11 09:17:39;;;;;;;43.67;20.95;;;;;;;;;;5181098;28;20050;-33
2022/01/11 09:20:14;;;;;;;42.80;20.67;;;3.10;99.90;;;;;;5164887;28;20053;-32
2022/01/11 09:22:47;;;;;;;42.47;21.13;;;;;;;;;;5159399;28;20053;-32
2022/01/11 09:25:20;;;;;;;42.25;19.23;;;;;;;;;;5160589;28;20052;-32
2022/01/11 09:28:04;;;;;;;46.33;22.55;;;2.90;99.90;;;;;;5158473;28;20049;-32
2022/01/11 09:30:38;;;;;;;44.00;21.67;;;;;;;;;;5179462;28;20472;-32
2022/01/11 09:33:11;;;;;;;49.20;22.33;;;;;;;;;;5181094;28;20045;-33
2022/01/11 09:35:45;;;;;;;59.00;24.70;;;;;;;;;;5180957;28;20045;-32
2022/01/11 09:38:28;;;;;;;46.88;22.50;;;3.00;99.90;;;;;;5163491;28;20049;-32
2022/01/11 09:41:01;;;;;;;52.67;24.45;;;3.00;99.90;;;;;;5163992;28;20056;-33
2022/01/11 09:43:39;;;;;;;52.35;24.30;;;3.00;99.90;;;;;;5161917;28;20065;-33
2022/01/11 09:46:14;;;;;;;56.17;24.90;;;3.00;99.90;;;;;;5169650;28;20041;-33
2022/01/11 09:48:48;;;;;;;54.72;23.83;;;;;;;;;;5169683;28;20033;-33
2022/01/11 09:51:25;;;;;;;51.70;24.55;;;;;;;;;;5161503;28;20213;-33
2022/01/11 09:54:01;;;;;;;50.47;23.38;;;;;;;;;;5176899;28;20041;-33
2022/01/11 09:56:35;;;;;;;48.25;22.75;;;3.00;99.90;;;;;;5159911;28;20049;-32
2022/01/11 09:59:09;;;;;;;50.30;22.58;;;;;;;;;;5179803;28;20550;-33
2022/01/11 10:02:01;;;;;;;49.78;22.75;;;;;;;;;;5180062;28;20631;-32
2022/01/11 10:05:05;;;;;;;51.08;23.08;;;3.00;99.90;;;;;;5163981;28;20049;-32
2022/01/11 10:07:42;;;;;;;55.08;25.15;;;2.90;99.90;;;;;;5166269;28;20045;-32
2022/01/11 10:10:18;;;;;;;55.88;25.63;;;2.90;99.90;;;;;;5175434;28;20041;-33
2022/01/11 10:12:54;;;;;;;64.50;27.23;;;3.00;99.90;;;;;;5195920;28;20793;-33
2022/01/11 10:15:34;;;;;;;60.22;25.48;;;2.90;99.90;;;;;;5165661;28;20323;-33
2022/01/11 10:18:36;;;;;;;57.05;25.15;;;2.90;99.90;;;;;;5178455;28;20049;-32
2022/01/11 10:21:38;;;;;;;57.38;24.85;;;2.90;99.90;;;;;;5178175;28;20049;-33
2022/01/11 10:24:45;;;;;;;56.00;23.73;;;2.80;99.90;;;;;;5159620;28;20041;-33
2022/01/11 10:27:29;;;;;;;51.42;22.48;;;2.70;99.90;;;;;;5137158;28;20117;-33
2022/01/11 10:30:12;;;;;;;54.95;22.25;;;2.70;99.90;;;;;;5160219;28;20045;-33
2022/01/11 10:32:49;;;;;;;47.65;21.63;;;2.70;99.90;;;;;;5161295;28;20041;-33
2022/01/11 10:35:42;;;;;;;41.33;19.27;;;2.70;99.90;;;;;;5181001;28;20537;-33
2022/01/11 10:38:37;;;;;;;38.72;19.95;;;;;;;;;;5156410;28;20050;-33
2022/01/11 10:41:43;;;;;;;44.88;20.00;;;2.80;99.90;;;;;;5155680;28;20058;-33
2022/01/11 10:44:47;;;;;;;44.63;20.77;;;2.80;99.90;;;;;;5174069;28;20424;-33
2022/01/11 10:47:29;;;;;;;43.53;20.05;;;2.90;99.90;;;;;;5156594;28;20057;-33
2022/01/11 10:50:10;;;;;;;47.72;20.90;;;2.90;99.90;;;;;;5174021;28;20057;-33
2022/01/11 10:52:44;;;;;;;36.70;17.63;;;;;;;;;;5158173;28;20041;-33
2022/01/11 10:55:24;;;;;;;40.30;17.88;;;2.90;99.90;;;;;;5158263;28;20042;-33
2022/01/11 10:58:04;;;;;;;35.90;17.52;;;2.90;99.90;;;;;;5159041;28;20049;-33
2022/01/11 11:00:40;;;;;;;40.75;19.30;;;2.90;99.90;;;;;;5158258;28;20053;-33
2022/01/11 11:03:16;;;;;;;38.45;18.67;;;3.00;99.90;;;;;;5170656;28;20065;-33
2022/01/11 11:05:59;;;;;;;38.25;17.13;;;3.00;99.90;;;;;;5165777;28;20054;-33
2022/01/11 11:08:41;;;;;;;36.60;17.88;;;3.10;99.90;;;;;;5157214;28;20064;-33
2022/01/11 11:11:23;;;;;;;37.08;17.63;;;;;;;;;;5162614;28;20401;-33
2022/01/11 11:14:21;;;;;;;41.42;20.00;;;;;;;;;;5183293;28;20374;-33
2022/01/11 11:17:29;;;;;;;40.35;18.42;;;3.20;99.90;;;;;;5176668;28;20045;-33
2022/01/11 11:20:08;;;;;;;37.58;19.45;;;3.20;99.90;;;;;;5178847;28;20482;-32
2022/01/11 11:22:41;;;;;;;43.10;20.08;;;;;;;;;;5179016;28;20045;-33
2022/01/11 11:25:14;;;;;;;38.60;19.65;;;;;;;;;;5180567;28;20061;-33
2022/01/11 11:27:46;;;;;;;35.13;18.40;;;;;;;;;;5152371;28;20050;-33
2022/01/11 11:30:20;;;;;;;29.73;15.48;;;;;;;;;;5182245;28;20049;-32
2022/01/11 11:32:53;;;;;;;22.98;13.05;;;3.10;99.90;;;;;;5182780;28;20046;-32
2022/01/11 11:35:26;;;;;;;22.20;11.73;;;;;;;;;;5182951;28;20038;-33
2022/01/11 11:38:02;;;;;;;21.35;11.23;;;3.00;99.90;;;;;;5179835;28;20045;-32
2022/01/11 11:40:36;;;;;;;41.90;13.68;;;3.00;99.90;;;;;;5182796;28;20053;-32
2022/01/11 11:43:10;;;;;;;;;;;2.90;99.90;;;;;;5223301;23;20488;-78
2022/01/11 11:45:43;;;;;;;21.02;12.00;;;;;;;;;;5245371;28;20405;-77
2022/01/11 11:48:20;;;;;;;21.90;11.27;;;3.10;99.90;;;;;;5236845;28;20414;-75
2022/01/11 11:50:52;;;;;;;25.35;9.63;;;;;;;;;;5247361;28;20048;-74
2022/01/11 11:53:27;;;;;;;21.80;9.63;;;3.20;99.90;;;;;;5267470;28;20366;-76
2022/01/11 11:56:26;;;;;;;30.23;12.10;;;3.10;99.90;;;;;;5267576;22;20041;-43
2022/01/11 11:59:06;;;;;;;16.45;8.55;;;3.20;99.90;;;;;;5220851;28;20072;-42
2022/01/11 12:01:42;;;;;;;20.05;10.73;;;;;;;;;;5226289;28;20397;-44
2022/01/11 12:04:36;;;;;;;19.63;10.90;;;3.30;99.90;;;;;;5209325;28;20049;-43
2022/01/11 12:07:54;;;;;;;22.67;11.50;;;3.30;99.90;;;;;;5208110;28;20053;-40
2022/01/11 12:10:53;;;;;;;20.40;11.75;;;3.30;99.90;;;;;;5201542;28;20549;-41
2022/01/11 12:13:56;;;;;;;18.90;10.18;;;3.20;99.90;;;;;;5207308;28;20049;-42
2022/01/11 12:16:36;;;;;;;15.40;9.43;;;;;;;;;;5180823;28;20064;-40
2022/01/11 12:19:42;;;;;;;16.90;9.60;;;3.20;99.90;;;;;;5185402;28;20428;-43
2022/01/11 12:22:22;;;;;;;32.65;10.80;;;3.20;99.90;;;;;;5193494;28;20041;-41
2022/01/11 12:24:57;;;;;;;33.60;11.77;;;3.40;99.90;;;;;;5191371;28;20081;-43
2022/01/11 12:27:30;;;;;;;23.58;10.60;;;;;;;;;;5191008;28;20300;-40
2022/01/11 12:30:08;;;;;;;20.40;10.87;;;3.50;99.90;;;;;;5195934;28;20048;-42
2022/01/11 12:33:21;;;;;;;20.30;11.95;;;3.60;99.90;;;;;;5177678;28;20056;-41
2022/01/11 12:36:04;;;;;;;21.98;12.15;;;3.60;99.90;;;;;;5196571;28;20036;-41
2022/01/11 12:38:37;;;;;;;20.77;10.77;;;;;;;;;;5183655;28;20049;-43
2022/01/11 12:41:33;;;;;;;22.08;11.25;;;3.50;99.90;;;;;;5203200;28;20048;-42
2022/01/11 12:44:27;;;;;;;22.83;11.10;;;3.60;99.90;;;;;;5206383;28;20049;-43
2022/01/11 12:47:08;;;;;;;17.30;10.15;;;3.60;99.90;;;;;;5200026;28;20412;-40
2022/01/11 12:50:03;;;;;;;19.52;10.65;;;3.60;99.90;;;;;;5178542;28;20368;-40
2022/01/11 12:52:35;;;;;;;;;;;3.70;99.90;;;;;;5204004;28;20052;-41
2022/01/11 12:55:10;;;;;;;16.17;9.25;;;3.60;99.60;;;;;;5202614;28;20513;-43
2022/01/11 12:57:43;;;;;;;15.88;8.65;;;;;;;;;;5198019;28;20363;-45
2022/01/11 13:00:17;;;;;;;15.88;8.40;;;;;;;;;;5194385;28;20044;-43
2022/01/11 13:02:50;;;;;;;17.80;8.98;;;;;;;;;;5182096;28;20045;-44
2022/01/11 13:05:27;;;;;;;17.35;10.45;;;3.40;97.50;;;;;;5191578;28;20432;-40
2022/01/11 13:08:04;;;;;;;14.23;8.50;;;;;;;;;;4505676;28;10000177;-42
2022/01/11 13:10:39;;;;;;;16.02;8.95;;;;;;;;;;5192481;28;20045;-43
2022/01/11 13:13:16;;;;;;;20.77;9.00;;;;;;;;;;5202632;28;20400;-41
2022/01/11 13:15:49;;;;;;;17.45;10.18;;;3.40;96.40;;;;;;5203641;28;20048;-40
2022/01/11 13:18:25;;;;;;;18.92;11.30;;;3.40;97.00;;;;;;5184631;28;20496;-42
2022/01/11 13:21:05;;;;;;;18.00;10.15;;;3.50;97.30;;;;;;5173659;28;20056;-46
2022/01/11 13:23:52;;;;;;;19.90;10.27;;;3.40;96.90;;;;;;5179097;28;20053;-42
2022/01/11 13:26:26;;;;;;;20.48;11.93;;;;;;;;;;5174422;28;20085;-43
2022/01/11 13:29:00;;;;;;;;;;;3.50;97.10;;;;;;5186304;28;20049;-45
2022/01/11 13:31:37;;;;;;;21.77;11.23;;;3.40;97.20;;;;;;5147631;28;20007;-44
2022/01/11 13:34:14;;;;;;;23.50;12.25;;;3.50;97.80;;;;;;5165642;28;20158;-42
2022/01/11 13:36:47;;;;;;;20.27;11.13;;;;;;;;;;5159842;28;20055;-44
2022/01/11 13:39:37;;;;;;;21.98;12.10;;;3.50;98.10;;;;;;5154435;28;20694;-40
2022/01/11 13:42:11;;;;;;;19.73;10.25;;;3.50;97.20;;;;;;5173920;28;20045;-43
2022/01/11 13:44:47;;;;;;;20.58;10.85;;;;;;;;;;5170422;28;20057;-44
2022/01/11 13:47:20;;;;;;;22.10;11.25;;;;;;;;;;5161038;28;20045;-43
2022/01/11 13:49:53;;;;;;;22.40;12.07;;;;;;;;;;5147881;28;20053;-46
2022/01/11 13:52:26;;;;;;;22.95;11.88;;;3.40;96.80;;;;;;5174731;28;20049;-41
2022/01/11 13:54:59;;;;;;;19.10;11.07;;;;;;;;;;5171424;28;20236;-42
2022/01/11 13:57:32;;;;;;;21.27;11.33;;;;;;;;;;5169365;28;20310;-43
2022/01/11 14:00:15;;;;;;;24.20;12.20;;;3.40;96.80;;;;;;5178891;28;20241;-44
2022/01/11 14:02:53;;;;;;;16.55;10.02;;;;;;;;;;5165649;28;20385;-41
2022/01/11 14:05:29;;;;;;;20.70;10.43;;;3.40;97.00;;;;;;5168704;28;20080;-46
2022/01/11 14:08:06;;;;;;;21.63;11.77;;;;;;;;;;5162927;28;20511;-42
2022/01/11 14:10:42;;;;;;;23.52;11.70;;;3.40;97.20;;;;;;5172023;28;20056;-43
2022/01/11 14:13:16;;;;;;;24.30;12.93;;;;;;;;;;5163271;28;20058;-42
2022/01/11 14:15:49;;;;;;;22.02;11.65;;;;;;;;;;5167435;28;20067;-42
2022/01/11 14:18:25;;;;;;;24.40;12.25;;;;;;;;;;5167845;28;20075;-47
2022/01/11 14:21:10;;;;;;;23.60;12.15;;;3.50;97.80;;;;;;5181804;28;20050;-45
2022/01/11 14:23:51;;;;;;;25.65;12.95;;;3.40;97.70;;;;;;5160130;28;20049;-44
2022/01/11 14:26:34;;;;;;;22.40;12.68;;;3.40;97.50;;;;;;5177029;28;20049;-48
2022/01/11 14:29:07;;;;;;;23.95;12.50;;;;;;;;;;5176298;28;20056;-41
2022/01/11 14:31:40;;;;;;;23.90;11.70;;;;;;;;;;5175812;28;20045;-43
2022/01/11 14:34:15;;;;;;;21.30;12.40;;;2.80;99.90;;;;;;5187118;28;20586;-44
2022/01/11 14:36:48;;;;;;;21.85;13.05;;;6.10;99.90;;;;;;5170418;28;20069;-42
2022/01/11 14:39:20;;;;;;;23.52;12.73;;;1.20;99.60;;;;;;5173853;28;21531;-43
2022/01/11 14:41:53;;;;;;;24.73;13.07;;;3.50;99.90;;;;;;5182142;28;20053;-43
2022/01/11 14:44:27;;;;;;;24.48;13.32;;;5.50;99.90;;;;;;5181808;28;20216;-41
2022/01/11 14:47:02;;;;;;;26.45;13.23;;;3.50;99.90;;;;;;5195452;28;20056;-43